BFIBOEING FLD/KING COUNTY INTL
METARs for airports near BFI, sorted by distance:
N 0 nm 21' KBFI 181753Z VRB03KT 10SM SCT250 18/11 A3012
SE 4 nm 32' KRNT 181753Z 32010KT 10SM CLR 19/10 A3011
S 4 nm 432' KSEA 181753Z 35006KT 10SM SCT250 18/09 A3013
W 18 nm 444' KPWT 181756Z 29003KT 10SM CLR 19/10 A3013
SW 19 nm 294' KTIW 181753Z 01006KT 10SM CLR 17/08 A3013
N 22 nm 607' KPAE 181753Z 36009KT 10SM CLR 16/10 A3014
S 24 nm 322' KTCM 181758Z 28005KT 10SM CLR 20/10 A3011
S 25 nm 537' KPLU 181755Z VRB04KT 10SM CLR 20/11 A3012
S 29 nm 301' KGRF 181758Z 30004KT 10SM CLR 19/10 A3011
N 38 nm 141' KAWO 181756Z 30009KT 10SM CLR 16/11 A3014
SW 38 nm 272' KSHN 181753Z 00000KT 10SM CLR 18/10 A3010
SW 41 nm 207' KOLM 181754Z 17004KT 10SM CLR 18/11 A3012
N 51 nm 47' KNUW 181756Z 27013KT 10SM SCT026 BKN080 BKN250 16/10 A3017
N 56 nm 145' KBVS 181755Z 14007KT 8SM CLR 20/11 A3012
NW 57 nm 13' KNOW 181755Z 30012KT 10SM CLR 14/11 A3015
SW 58 nm 177' KCLS 181755Z 03004G11KT 10SM CLR 18/12 A3012
NW 59 nm 291' KCLM 181753Z 30011G17KT 10SM CLR 16/10 A3015
NW 66 nm 112' KFHR 181803Z 22006KT 1 3/4SM HZ CLR 18/11 A3012
SW 74 nm 17' KHQM 181753Z 30012KT 10SM FEW028 18/11 A3014
N 74 nm 34' KORS 181755Z 00000KT 10SM CLR 17/13 A3011
N 76 nm 171' KBLI 181753Z 19009G18KT 10SM CLR 17/07 A3011
E 78 nm 1763' KELN 181753Z VRB06KT 10SM CLR 27/02 A3000
NW 80 nm 64' CYYJ 181800Z 06007KT 040V120 30SM FEW040 FEW250 19/10 A3011
E 85 nm 1248' KEAT 181755Z 26004KT 10SM CLR 24/07 A2997
S 88 nm 20' KKLS 181756Z VRB05KT 10SM CLR 19/11 A3012
SE 92 nm 1098' KYKM 181753Z VRB04KT 10SM CLR 27/03 A2997
W 94 nm 193' KUIL 181753Z 33010KT 10SM BKN023 OVC029 14/09 A3018
TAFs for airports near BFI, sorted by distance:
N 0 nm 21' KBFI KBFI 181729Z 1818/1918 VRB04KT P6SM SCT250
  FM182300 31007KT P6SM SKC
  FM190700 VRB03KT P6SM SKC
S 4 nm 432' KSEA KSEA 181729Z 1818/1924 35007KT P6SM SCT250
  FM181900 34009KT P6SM SCT200
  FM190100 34012KT P6SM SKC
  FM190700 02006KT P6SM SCT200
  FM191400 VRB04KT P6SM SCT200
W 18 nm 444' KPWT TAF KPWT 181729Z 1818/1918 VRB05KT P6SM SCT250
  FM181900 34007KT P6SM SCT200
  FM182300 04007KT P6SM SCT200
  FM190900 VRB03KT P6SM SCT200
N 22 nm 607' KPAE TAF KPAE 181729Z 1818/1918 02008KT P6SM SCT250
  FM182100 35007KT P6SM SCT200
  FM190800 01004KT P6SM SCT200
S 24 nm 322' KTCM TAF KTCM 181300Z 1813/1919 VRB06KT 9999 FEW150 QNH3011INS
  BECMG 1820/1821 34012KT 9999 FEW100 SCT150 QNH3002INS
  BECMG 1902/1903 VRB06KT 9999 SCT100 BKN150 QNH3002INS
  BECMG 1911/1912 18006KT 9999 SCT100 QNH3005INS TX23/1900Z TN08/1813Z
S 29 nm 301' KGRF TAF TAF KGRF 181300Z 1813/1919 15006KT 9999 SKC QNH3007INS
  BECMG 1819/1820 35010KT 9999 FEW250 QNH3006INS
  BECMG 1903/1904 35006KT 9999 FEW050 FEW200 QNH3004INS
  BECMG 1907/1908 33006KT 9999 SCT200 QNH3006INS
  BECMG 1916/1917 22008KT 9999 BKN070 BKN200 QNH3007INS TX26/1823Z TN08/1813Z
SW 41 nm 207' KOLM KOLM 181729Z 1818/1918 01004KT P6SM SCT200
  FM182100 35006KT P6SM SCT200
  FM190700 18004KT P6SM BKN200
N 51 nm 47' KNUW TAF COR KNUW 1815/1915 26009KT 9999 FEW005 SCT050 BKN250 QNH3012INS
  TEMPO 1815/1519 VRB06KT
  FM181900 27009KT 9999 FEW050 SCT250 QNH3009INS
  FM190500 24008KT 9999 SCT050 BKN250 QNH3005INS
  FM191000 23007KT 9999 SCT005 BKN050 BKN250 QNH3004INS
  TEMPO 1910/1915 6000 BR BKN005 T17/1822Z T10/1913Z COR 1540 FS30004
NW 59 nm 291' KCLM KCLM 181729Z 1818/1918 28011KT P6SM SCT200
  FM190200 31014G20KT P6SM BKN250
SW 74 nm 17' KHQM KHQM 181729Z 1818/1918 32010KT P6SM SKC
  FM182100 25017KT P6SM FEW250
  FM190800 29007KT P6SM BKN025
  FM191200 27004KT P6SM OVC015
N 76 nm 171' KBLI KBLI 181729Z 1818/1918 30012G20KT P6SM SCT200
  FM190800 29013KT P6SM SCT250
E 85 nm 1248' KEAT KEAT 181734Z 1818/1918 23005KT P6SM SKC
  FM190000 29016G22KT P6SM SCT250
  FM190800 30011KT P6SM BKN200
SE 92 nm 1098' KYKM KYKM 181721Z 1818/1918 VRB05KT P6SM SKC
  FM190200 32012G20KT P6SM FEW250
  FM190900 32006KT P6SM SCT250

Shortcut to this page: http://wxbay.com.

Data may contain errors.